Time;durP1;ratioP1;P1;durP2;ratioP2;P2;SDS_P1;SDS_P2;PMS_P1;PMS_P2;Temp;Humidity;BMP_temperature;BMP_pressure;BME280_temperature;BME280_humidity;BME280_pressure;Samples;Min_cycle;Max_cycle;Signal;HPM_P1;HPM_P2
2022/04/18 03:00:20;;;;;;;15.80;14.90;;;1.20;99.90;;;;;;5894796;23;20275;-77
2022/04/18 03:02:46;;;;;;;12.53;11.80;;;1.20;99.90;;;;;;4932998;29;20293;-77
2022/04/18 03:05:12;;;;;;;12.43;11.73;;;1.30;99.90;;;;;;4935100;29;20273;-76
2022/04/18 03:07:38;;;;;;;13.33;12.53;;;1.30;99.90;;;;;;4934858;29;20306;-76
2022/04/18 03:10:05;;;;;;;15.03;14.20;;;1.30;99.90;;;;;;4933895;29;20688;-76
2022/04/18 03:12:31;;;;;;;21.23;19.83;;;1.30;99.90;;;;;;4938047;29;20229;-77
2022/04/18 03:14:57;;;;;;;16.90;15.83;;;1.20;99.90;;;;;;4960546;23;20713;-77
2022/04/18 03:17:23;;;;;;;16.10;15.20;;;1.10;99.90;;;;;;4936934;29;20241;-77
2022/04/18 03:19:49;;;;;;;15.10;14.10;;;1.00;99.90;;;;;;4936686;29;20190;-76
2022/04/18 03:22:15;;;;;;;13.10;12.20;;;1.00;99.90;;;;;;4935551;29;20186;-76
2022/04/18 03:24:41;;;;;;;11.70;10.70;;;1.00;99.90;;;;;;4934103;29;20202;-76
2022/04/18 03:27:07;;;;;;;11.23;10.53;;;1.00;99.90;;;;;;4934140;29;20271;-76
2022/04/18 03:29:33;;;;;;;10.47;9.73;;;1.00;99.90;;;;;;4935262;29;20175;-76
2022/04/18 03:31:59;;;;;;;10.90;10.20;;;1.00;99.90;;;;;;4935074;29;20183;-76
2022/04/18 03:34:25;;;;;;;14.17;13.27;;;1.00;99.90;;;;;;4935371;29;20213;-76
2022/04/18 03:39:51;;;;;;;11.07;10.37;;;0.90;99.90;;;;;;4934796;29;20186;-75
2022/04/18 03:42:35;;;;;;;17.70;16.57;;;0.80;99.90;;;;;;4933763;29;20189;-75
2022/04/18 03:45:03;;;;;;;11.33;10.57;;;0.90;99.90;;;;;;4935442;29;20225;-76
2022/04/18 03:47:29;;;;;;;13.03;12.17;;;0.80;99.90;;;;;;4931569;29;20266;-76
2022/04/18 03:49:56;;;;;;;9.87;9.27;;;0.80;99.90;;;;;;4934975;29;20195;-76
2022/04/18 03:52:23;;;;;;;11.47;10.77;;;0.80;99.90;;;;;;4933350;29;20234;-76
2022/04/18 03:54:50;;;;;;;19.73;18.20;;;0.90;99.90;;;;;;4933368;29;20225;-75
2022/04/18 03:57:16;;;;;;;10.53;9.70;;;0.90;99.90;;;;;;4932847;29;20242;-75
2022/04/18 03:59:41;;;;;;;12.13;11.33;;;0.80;99.90;;;;;;4949283;29;20193;-75
2022/04/18 04:02:08;;;;;;;11.47;10.47;;;0.80;99.90;;;;;;4933676;29;20559;-75
2022/04/18 04:04:35;;;;;;;11.53;10.83;;;0.80;99.90;;;;;;4933467;29;20199;-76
2022/04/18 04:07:00;;;;;;;10.63;9.93;;;0.80;99.90;;;;;;4932418;29;20210;-76
2022/04/18 04:09:26;;;;;;;12.23;11.27;;;0.80;99.90;;;;;;4934232;29;20224;-76
2022/04/18 04:11:52;;;;;;;11.60;10.53;;;0.70;99.90;;;;;;4933051;29;20197;-76
2022/04/18 04:14:20;;;;;;;13.80;13.00;;;0.70;99.90;;;;;;4932767;29;20315;-75
2022/04/18 04:16:45;;;;;;;11.63;10.90;;;0.70;99.90;;;;;;4931944;29;20186;-76
2022/04/18 04:19:11;;;;;;;12.03;11.33;;;0.70;99.90;;;;;;4932863;29;20190;-76
2022/04/18 04:21:37;;;;;;;11.93;10.97;;;0.70;99.90;;;;;;4934241;29;20186;-76
2022/04/18 04:24:03;;;;;;;10.63;9.83;;;0.70;99.90;;;;;;4933293;29;20588;-76
2022/04/18 04:26:29;;;;;;;12.73;11.83;;;0.70;99.90;;;;;;4933899;29;20206;-75
2022/04/18 04:28:55;;;;;;;10.80;10.20;;;0.70;99.90;;;;;;4932592;29;20196;-76
2022/04/18 04:31:20;;;;;;;11.20;10.50;;;0.70;99.90;;;;;;4934008;29;20274;-76
2022/04/18 04:33:46;;;;;;;14.00;13.17;;;0.80;99.90;;;;;;4933828;29;20237;-76
2022/04/18 04:36:12;;;;;;;12.53;11.83;;;0.80;99.90;;;;;;4932568;29;20197;-76
2022/04/18 04:38:38;;;;;;;11.13;10.43;;;0.80;99.90;;;;;;4932643;29;20281;-76
2022/04/18 04:41:04;;;;;;;11.13;10.40;;;0.80;99.90;;;;;;4935844;29;20224;-76
2022/04/18 04:43:30;;;;;;;14.33;13.40;;;0.90;99.90;;;;;;4940259;29;20221;-76
2022/04/18 04:45:56;;;;;;;13.47;12.73;;;0.80;99.90;;;;;;4939456;29;20206;-76
2022/04/18 04:48:23;;;;;;;12.07;11.37;;;0.90;99.90;;;;;;4938817;29;20568;-75
2022/04/18 04:50:50;;;;;;;12.70;11.57;;;0.90;99.90;;;;;;4940178;29;20651;-75
2022/04/18 04:53:16;;;;;;;13.37;12.43;;;1.00;99.90;;;;;;4942480;29;20182;-76
2022/04/18 04:55:42;;;;;;;9.43;8.83;;;1.10;99.90;;;;;;4940462;29;20748;-76
2022/04/18 04:58:11;;;;;;;11.47;10.47;;;1.10;99.90;;;;;;4955275;29;20190;-76
2022/04/18 05:00:38;;;;;;;12.30;11.50;;;1.20;99.90;;;;;;4940348;29;20275;-76
2022/04/18 05:03:04;;;;;;;12.63;11.57;;;1.40;99.90;;;;;;4939147;29;20257;-76
2022/04/18 05:05:31;;;;;;;18.33;17.37;;;1.40;99.90;;;;;;4939128;29;20206;-76
2022/04/18 05:07:57;;;;;;;11.53;10.63;;;1.50;99.90;;;;;;4941004;29;20186;-76
2022/04/18 05:10:23;;;;;;;10.50;9.60;;;1.60;99.90;;;;;;4941790;29;20666;-76
2022/04/18 05:12:49;;;;;;;15.83;14.83;;;1.80;99.90;;;;;;4939853;29;20186;-76
2022/04/18 05:15:14;;;;;;;21.63;20.33;;;2.20;99.90;;;;;;4939735;29;20236;-77
2022/04/18 05:17:40;;;;;;;9.60;9.03;;;2.60;99.90;;;;;;4944493;29;20264;-76
2022/04/18 05:20:07;;;;;;;16.47;15.43;;;3.20;99.90;;;;;;4943287;29;20194;-77
2022/04/18 05:22:33;;;;;;;12.20;11.40;;;3.70;99.90;;;;;;4940466;29;20213;-76
2022/04/18 05:24:59;;;;;;;11.23;10.43;;;4.10;99.90;;;;;;4940712;29;20626;-76
2022/04/18 05:27:25;;;;;;;11.03;10.20;;;4.60;99.90;;;;;;4939463;29;20186;-76
2022/04/18 05:29:51;;;;;;;14.70;13.70;;;4.90;99.90;;;;;;4940166;29;20178;-76
2022/04/18 05:32:17;;;;;;;14.17;13.37;;;5.40;99.90;;;;;;4947080;29;20182;-76
2022/04/18 05:34:43;;;;;;;10.10;9.50;;;5.90;99.90;;;;;;4956480;29;20206;-76
2022/04/18 05:37:09;;;;;;;9.37;8.03;;;6.40;99.90;;;;;;4943683;29;20560;-76
2022/04/18 05:39:35;;;;;;;8.70;7.73;;;6.70;99.90;;;;;;4937386;29;20210;-76
2022/04/18 05:42:01;;;;;;;12.50;11.27;;;6.90;99.90;;;;;;4937744;29;20215;-76
2022/04/18 05:44:28;;;;;;;13.70;12.90;;;7.30;99.90;;;;;;4925602;29;20205;-77
2022/04/18 05:46:54;;;;;;;9.47;8.87;;;7.50;99.90;;;;;;4936265;29;20212;-77
2022/04/18 05:49:19;;;;;;;8.20;7.50;;;7.70;99.90;;;;;;4959429;29;20269;-76
2022/04/18 05:51:45;;;;;;;7.93;7.17;;;8.00;99.90;;;;;;4944702;29;20194;-77
2022/04/18 05:54:11;;;;;;;7.07;6.57;;;8.40;99.90;;;;;;4956327;28;20209;-76
2022/04/18 05:56:37;;;;;;;7.33;6.73;;;8.70;99.90;;;;;;4941592;29;20588;-76
2022/04/18 05:59:03;;;;;;;7.20;6.70;;;8.90;99.90;;;;;;4939379;29;20185;-76
2022/04/18 06:01:29;;;;;;;8.07;7.47;;;8.90;99.90;;;;;;4938560;29;20278;-76
2022/04/18 06:03:55;;;;;;;10.83;10.10;;;9.30;99.90;;;;;;4940084;29;20222;-77
2022/04/18 06:06:21;;;;;;;12.97;12.17;;;9.60;99.90;;;;;;4936872;29;20659;-77
2022/04/18 06:08:47;;;;;;;9.60;8.50;;;9.70;99.90;;;;;;4932576;29;20197;-76
2022/04/18 06:11:13;;;;;;;6.77;6.37;;;10.10;99.90;;;;;;4936916;29;20189;-76
2022/04/18 06:13:39;;;;;;;9.40;8.60;;;10.20;99.90;;;;;;4937087;29;20182;-76
2022/04/18 06:16:06;;;;;;;8.10;7.50;;;10.40;99.90;;;;;;4936299;29;20276;-76
2022/04/18 06:18:32;;;;;;;7.93;7.43;;;10.70;99.90;;;;;;4935721;29;20273;-76
2022/04/18 06:20:58;;;;;;;7.47;7.07;;;11.10;97.70;;;;;;4937062;29;20563;-76
2022/04/18 06:23:24;;;;;;;6.90;6.40;;;11.30;96.50;;;;;;4936925;29;20183;-76
2022/04/18 06:25:50;;;;;;;6.77;6.27;;;11.50;95.40;;;;;;4937460;29;20217;-76
2022/04/18 06:28:16;;;;;;;6.60;6.10;;;11.50;93.90;;;;;;4936181;29;20182;-76
2022/04/18 06:30:42;;;;;;;7.10;6.60;;;11.10;93.70;;;;;;4936084;29;20210;-76
2022/04/18 06:33:12;;;;;;;6.60;6.20;;;11.10;94.40;;;;;;4934970;29;20181;-76
2022/04/18 06:35:38;;;;;;;6.00;5.60;;;11.40;93.80;;;;;;4934358;29;20206;-76
2022/04/18 06:38:05;;;;;;;6.43;5.93;;;11.70;92.00;;;;;;4935313;29;20194;-76
2022/04/18 06:40:31;;;;;;;6.00;5.50;;;11.70;92.10;;;;;;4950988;29;20202;-76
2022/04/18 06:42:57;;;;;;;6.33;5.73;;;11.60;90.70;;;;;;4951875;29;20183;-76
2022/04/18 06:45:24;;;;;;;6.30;5.80;;;11.50;91.10;;;;;;4936093;29;20219;-77
2022/04/18 06:47:50;;;;;;;6.20;5.70;;;11.20;91.60;;;;;;4918410;29;20187;-77
2022/04/18 06:50:16;;;;;;;6.53;6.13;;;11.60;91.70;;;;;;4924405;29;20238;-76
2022/04/18 06:52:46;;;;;;;6.10;5.50;;;11.80;90.90;;;;;;4931111;29;20183;-75
2022/04/18 06:55:12;;;;;;;6.57;6.17;;;12.50;90.20;;;;;;4933558;29;20218;-77
2022/04/18 06:57:38;;;;;;;7.83;7.23;;;13.00;88.20;;;;;;4946731;29;20186;-76
2022/04/18 07:00:05;;;;;;;9.23;8.03;;;13.50;85.70;;;;;;4950929;29;20182;-77
2022/04/18 07:02:32;;;;;;;6.30;5.90;;;13.80;83.60;;;;;;4956458;29;20650;-77
2022/04/18 07:04:58;;;;;;;6.63;6.13;;;14.30;82.30;;;;;;4952135;28;20662;-77
2022/04/18 07:07:24;;;;;;;6.47;5.87;;;14.10;75.20;;;;;;4936022;29;20186;-76
2022/04/18 07:09:50;;;;;;;6.00;5.60;;;14.20;74.70;;;;;;4936186;29;20817;-77
2022/04/18 07:12:25;;;;;;;6.50;6.00;;;14.20;73.40;;;;;;4934464;29;20174;-77
2022/04/18 07:14:51;;;;;;;6.77;6.27;;;14.60;71.30;;;;;;4935192;29;20221;-77
2022/04/18 07:17:16;;;;;;;7.27;6.60;;;14.50;71.30;;;;;;4934409;29;20197;-77
2022/04/18 07:19:42;;;;;;;6.73;6.23;;;14.40;69.80;;;;;;4941941;29;20183;-78
2022/04/18 07:22:08;;;;;;;8.67;6.80;;;14.50;69.90;;;;;;4937472;29;20205;-76
2022/04/18 07:24:34;;;;;;;9.40;8.40;;;14.70;67.90;;;;;;4934292;29;20206;-76
2022/04/18 07:27:03;;;;;;;10.30;9.37;;;15.10;68.00;;;;;;4929806;29;20637;-77
2022/04/18 07:29:29;;;;;;;8.53;7.80;;;15.50;67.70;;;;;;4931540;29;20183;-77
2022/04/18 07:31:55;;;;;;;9.20;8.50;;;15.50;65.10;;;;;;4923042;29;20190;-76
2022/04/18 07:34:21;;;;;;;9.70;9.00;;;15.60;64.40;;;;;;4919179;29;20351;-77
2022/04/18 07:36:47;;;;;;;7.53;7.03;;;15.40;64.50;;;;;;4927306;29;20186;-75
2022/04/18 07:39:13;;;;;;;8.63;7.93;;;15.20;64.70;;;;;;4949567;29;20190;-78
2022/04/18 07:41:39;;;;;;;8.60;8.00;;;15.30;64.90;;;;;;4950283;29;20205;-76
2022/04/18 07:44:05;;;;;;;8.33;7.77;;;15.20;64.50;;;;;;4934909;29;20292;-76
2022/04/18 07:46:32;;;;;;;8.77;8.10;;;15.40;63.50;;;;;;4940829;29;20210;-76
2022/04/18 07:48:59;;;;;;;8.40;7.80;;;15.20;64.70;;;;;;4915123;29;20876;-76
2022/04/18 07:51:40;;;;;;;7.60;6.97;;;14.60;63.00;;;;;;4920244;29;20561;-78
2022/04/18 07:54:12;;;;;;;6.70;6.20;;;14.10;64.10;;;;;;4920943;29;20213;-75
2022/04/18 07:56:38;;;;;;;6.90;6.37;;;14.10;65.70;;;;;;4928224;29;20186;-76
2022/04/18 07:59:05;;;;;;;6.70;6.10;;;14.30;67.30;;;;;;4949364;29;20182;-77
2022/04/18 08:01:32;;;;;;;7.83;7.23;;;14.90;64.50;;;;;;4948819;29;20194;-76
2022/04/18 08:04:00;;;;;;;8.60;8.00;;;15.10;62.70;;;;;;4949666;29;20231;-76
2022/04/18 08:06:27;;;;;;;8.37;7.77;;;15.10;62.30;;;;;;4938181;29;20699;-76
2022/04/18 08:08:53;;;;;;;7.87;7.27;;;14.80;62.10;;;;;;4918450;29;20183;-77
2022/04/18 08:11:18;;;;;;;7.90;7.23;;;14.70;60.90;;;;;;4920394;29;20182;-77
2022/04/18 08:13:46;;;;;;;8.47;7.70;;;14.70;61.60;;;;;;4924430;29;20211;-78
2022/04/18 08:16:12;;;;;;;8.20;7.60;;;14.90;62.90;;;;;;4936676;29;20190;-78
2022/04/18 08:18:44;;;;;;;7.27;6.67;;;14.90;62.10;;;;;;4965113;29;20592;-78
2022/04/18 08:21:12;;;;;;;7.07;6.57;;;14.70;62.40;;;;;;4923969;29;20558;-78
2022/04/18 08:23:38;;;;;;;6.87;6.27;;;14.70;62.50;;;;;;4923434;29;20190;-79
2022/04/18 08:26:04;;;;;;;7.57;6.80;;;14.80;62.80;;;;;;4926720;29;20706;-77
2022/04/18 08:28:31;;;;;;;9.27;8.60;;;15.60;62.00;;;;;;4953767;29;20273;-77
2022/04/18 08:30:57;;;;;;;11.03;8.40;;;15.90;59.20;;;;;;4937735;29;20613;-77
2022/04/18 08:33:24;;;;;;;8.03;7.60;;;15.70;59.30;;;;;;4950059;29;20322;-71
2022/04/18 08:35:50;;;;;;;7.67;7.17;;;16.00;61.10;;;;;;4947636;29;20232;-72
2022/04/18 08:38:15;;;;;;;7.70;6.97;;;16.40;58.50;;;;;;4934585;29;20242;-72
2022/04/18 08:40:43;;;;;;;8.70;5.90;;;16.60;58.60;;;;;;4935313;29;20277;-72
2022/04/18 08:43:10;;;;;;;6.13;5.73;;;17.30;57.50;;;;;;4932909;29;20183;-71
2022/04/18 08:45:38;;;;;;;6.03;5.63;;;17.30;57.50;;;;;;4933015;29;20229;-71
2022/04/18 08:53:35;;;;;;;7.03;6.43;;;17.20;55.20;;;;;;4933580;29;20245;-71
2022/04/18 08:56:01;;;;;;;7.43;6.73;;;16.80;55.40;;;;;;4933088;29;20182;-71
2022/04/18 08:58:28;;;;;;;5.97;5.57;;;17.20;56.90;;;;;;4931642;29;20765;-70
2022/04/18 09:00:55;;;;;;;5.90;5.40;;;17.60;55.70;;;;;;4931933;29;20669;-71
2022/04/18 09:03:22;;;;;;;6.90;6.07;;;17.90;54.80;;;;;;4933671;29;20182;-71
2022/04/18 09:05:48;;;;;;;5.93;5.33;;;18.00;51.90;;;;;;4932874;29;20690;-72
2022/04/18 09:08:14;;;;;;;6.67;6.07;;;18.10;52.70;;;;;;4947615;29;20556;-71
2022/04/18 09:10:41;;;;;;;6.30;5.87;;;17.70;51.40;;;;;;4932355;29;20237;-70
2022/04/18 09:13:14;;;;;;;6.60;5.67;;;17.30;51.80;;;;;;4933473;29;20554;-71
2022/04/18 09:15:42;;;;;;;7.10;6.50;;;17.40;52.70;;;;;;4985887;23;20718;-71
2022/04/18 09:18:13;;;;;;;7.23;6.63;;;17.30;51.20;;;;;;4994165;28;20172;-71
2022/04/18 09:20:44;;;;;;;7.40;6.33;;;17.30;52.30;;;;;;4999218;28;20192;-71
2022/04/18 09:23:27;;;;;;;6.63;6.10;;;17.40;51.70;;;;;;4990951;28;20187;-72
2022/04/18 09:26:05;;;;;;;6.10;5.53;;;18.00;51.10;;;;;;4974845;28;20209;-72
2022/04/18 09:28:42;;;;;;;7.23;6.20;;;18.20;50.50;;;;;;4953583;28;20185;-72
2022/04/18 09:31:11;;;;;;;7.70;7.00;;;18.70;49.30;;;;;;4976692;28;20188;-77
2022/04/18 09:33:56;;;;;;;5.97;5.47;;;18.80;48.90;;;;;;4984300;28;20177;-78
2022/04/18 09:36:24;;;;;;;7.20;6.60;;;18.30;48.90;;;;;;4993398;28;20212;-78
2022/04/18 09:38:52;;;;;;;6.20;5.70;;;18.10;49.80;;;;;;4978853;28;20208;-78
2022/04/18 09:41:23;;;;;;;6.33;5.90;;;18.60;49.20;;;;;;4978269;28;20196;-78
2022/04/18 09:43:50;;;;;;;6.10;5.63;;;18.80;48.10;;;;;;4977352;28;20188;-78
2022/04/18 09:46:17;;;;;;;5.60;5.20;;;19.00;46.90;;;;;;4973132;28;20219;-78
2022/04/18 09:48:44;;;;;;;5.70;5.20;;;18.90;48.00;;;;;;4957606;29;20537;-78
2022/04/18 09:51:22;;;;;;;5.60;5.10;;;18.90;46.20;;;;;;4958513;28;20196;-78
2022/04/18 09:53:50;;;;;;;6.00;5.57;;;19.10;46.10;;;;;;4958464;29;20178;-77
2022/04/18 09:56:17;;;;;;;5.40;5.00;;;19.50;45.00;;;;;;4978727;28;20665;-77
2022/04/18 09:58:43;;;;;;;5.90;5.40;;;19.60;45.20;;;;;;4987577;28;20237;-77
2022/04/18 10:01:10;;;;;;;5.53;5.03;;;19.60;44.80;;;;;;5000927;28;20185;-78
2022/04/18 10:03:37;;;;;;;6.03;5.60;;;19.80;45.50;;;;;;4984363;28;20189;-78
2022/04/18 10:06:04;;;;;;;8.10;7.50;;;20.70;43.40;;;;;;4997169;28;20205;-77
2022/04/18 10:08:30;;;;;;;8.07;7.57;;;20.20;43.30;;;;;;4986288;28;20193;-78
2022/04/18 10:10:57;;;;;;;7.53;7.03;;;19.90;43.70;;;;;;4984780;28;20564;-78
2022/04/18 10:13:23;;;;;;;11.30;8.13;;;19.60;44.30;;;;;;4985288;28;20283;-80
2022/04/18 10:15:51;;;;;;;8.03;7.43;;;19.60;43.70;;;;;;4977082;28;20392;-78
2022/04/18 10:18:17;;;;;;;7.87;7.37;;;19.90;43.50;;;;;;4993701;28;20204;-78
2022/04/18 10:20:50;;;;;;;10.27;9.60;;;19.80;44.20;;;;;;4983680;28;20177;-78
2022/04/18 10:23:27;;;;;;;9.47;8.77;;;20.50;43.30;;;;;;5001645;28;20177;-77
2022/04/18 10:26:19;;;;;;;10.60;9.80;;;21.00;41.00;;;;;;4997716;28;20208;-78
2022/04/18 10:28:49;;;;;;;10.33;9.70;;;21.00;41.40;;;;;;4978395;28;20181;-78
2022/04/18 10:31:28;;;;;;;10.30;9.70;;;20.50;42.60;;;;;;4978049;28;20563;-79
2022/04/18 10:33:56;;;;;;;9.77;9.17;;;20.10;43.10;;;;;;4978530;28;20657;-79
2022/04/18 10:36:27;;;;;;;9.27;8.67;;;20.30;43.10;;;;;;4980568;28;20206;-78
2022/04/18 10:38:55;;;;;;;10.32;9.75;;;20.40;43.30;;;;;;4996418;28;20733;-77
2022/04/18 10:41:34;;;;;;;11.07;10.27;;;20.80;41.60;;;;;;4985171;28;20209;-78
2022/04/18 10:44:06;;;;;;;10.60;9.90;;;20.50;41.70;;;;;;4983771;28;20257;-78
2022/04/18 10:46:32;;;;;;;8.40;7.82;;;20.80;41.60;;;;;;4975707;28;20273;-81
2022/04/18 10:49:04;;;;;;;7.40;7.00;;;21.80;39.80;;;;;;4960698;28;20277;-79
2022/04/18 10:51:36;;;;;;;9.55;8.70;;;22.10;40.00;;;;;;4958802;28;20190;-78
2022/04/18 10:54:23;;;;;;;7.35;6.93;;;21.60;39.50;;;;;;4959508;28;20193;-80
2022/04/18 10:56:54;;;;;;;10.07;9.38;;;21.40;38.80;;;;;;4967707;28;20793;-78
2022/04/18 10:59:22;;;;;;;7.20;6.47;;;21.40;39.80;;;;;;4994950;28;20188;-79
2022/04/18 11:01:48;;;;;;;5.88;5.35;;;21.90;38.60;;;;;;4992570;28;20554;-80
2022/04/18 11:04:15;;;;;;;4.88;4.57;;;22.60;37.30;;;;;;4994575;28;20188;-80
2022/04/18 11:06:40;;;;;;;6.50;5.90;;;22.40;36.90;;;;;;5000981;28;20184;-79
2022/04/18 11:09:16;;;;;;;5.32;4.82;;;22.40;39.40;;;;;;4975427;28;20572;-79
2022/04/18 11:12:15;;;;;;;4.57;4.28;;;23.20;38.40;;;;;;4980429;28;20199;-78
2022/04/18 11:14:41;;;;;;;6.53;5.93;;;23.60;36.30;;;;;;4982469;28;20215;-79
2022/04/18 11:17:10;;;;;;;5.63;5.13;;;23.00;36.20;;;;;;4981188;28;20212;-78
2022/04/18 11:19:37;;;;;;;5.10;4.60;;;23.00;36.40;;;;;;4983649;28;20213;-78
2022/04/18 11:22:07;;;;;;;4.35;4.03;;;22.90;36.60;;;;;;4978331;28;20219;-79
2022/04/18 11:24:40;;;;;;;8.00;7.30;;;23.10;35.20;;;;;;4992360;28;20268;-79
2022/04/18 11:27:14;;;;;;;6.03;4.50;;;22.90;36.50;;;;;;4991692;28;20657;-79
2022/04/18 11:29:43;;;;;;;7.75;6.15;;;23.50;35.40;;;;;;4976368;28;20195;-78
2022/04/18 11:32:13;;;;;;;8.80;8.00;;;23.40;36.00;;;;;;4976003;28;20177;-80
2022/04/18 11:34:47;;;;;;;6.28;5.68;;;24.30;36.30;;;;;;4978121;28;20251;-79
2022/04/18 11:37:22;;;;;;;7.75;7.00;;;24.60;34.20;;;;;;4978594;28;20270;-78
2022/04/18 11:39:53;;;;;;;7.13;6.63;;;25.00;33.60;;;;;;4980456;28;20248;-78
2022/04/18 11:42:21;;;;;;;6.35;4.97;;;25.70;32.10;;;;;;4983067;28;20264;-79
2022/04/18 11:44:49;;;;;;;4.97;4.68;;;25.30;32.10;;;;;;4976876;28;20559;-79
2022/04/18 11:47:21;;;;;;;5.15;4.57;;;25.80;33.70;;;;;;4991230;28;20184;-79
2022/04/18 11:49:50;;;;;;;4.90;4.60;;;25.50;31.30;;;;;;4974775;28;20181;-80
2022/04/18 11:52:21;;;;;;;5.35;4.85;;;25.30;32.10;;;;;;4974344;28;20200;-78
2022/04/18 11:54:58;;;;;;;5.70;5.20;;;25.40;32.10;;;;;;4979029;28;20205;-77
2022/04/18 11:57:25;;;;;;;5.20;4.43;;;24.90;32.10;;;;;;4977827;28;20762;-78
2022/04/18 11:59:51;;;;;;;5.20;4.70;;;24.30;32.20;;;;;;4979697;28;20659;-78
2022/04/18 12:06:44;;;;;;;4.63;4.32;;;25.30;33.30;;;;;;4976220;28;20208;-77
2022/04/18 12:08:03;;;;;;;5.25;4.85;;;25.10;32.70;;;;;;4978178;28;20185;-78
2022/04/18 12:10:32;;;;;;;4.70;4.32;;;24.70;31.10;;;;;;4981387;28;20637;-78
2022/04/18 12:13:00;;;;;;;4.97;4.68;;;23.80;32.60;;;;;;4971057;28;20185;-78
2022/04/18 12:15:28;;;;;;;5.25;4.95;;;23.90;33.40;;;;;;4956692;28;20686;-78
2022/04/18 12:17:55;;;;;;;5.18;4.88;;;24.30;31.10;;;;;;4955950;28;20189;-78
2022/04/18 12:20:23;;;;;;;5.70;5.40;;;23.80;33.30;;;;;;4959891;28;20178;-77
2022/04/18 12:23:00;;;;;;;4.95;4.50;;;24.60;33.50;;;;;;4966189;28;20183;-78
2022/04/18 12:25:33;;;;;;;5.43;4.93;;;25.20;31.70;;;;;;4983481;28;20220;-77
2022/04/18 12:28:03;;;;;;;4.60;4.30;;;25.20;31.80;;;;;;4996516;28;20192;-78
2022/04/18 12:30:29;;;;;;;5.00;4.60;;;25.40;31.80;;;;;;4991585;28;20822;-79
2022/04/18 12:32:55;;;;;;;5.80;5.30;;;25.10;31.10;;;;;;4990899;28;20173;-79
2022/04/18 12:35:41;;;;;;;6.22;4.97;;;25.50;30.00;;;;;;4990910;28;20213;-79
2022/04/18 12:38:11;;;;;;;5.50;5.20;;;25.60;30.90;;;;;;4981119;28;20236;-78
2022/04/18 12:40:42;;;;;;;6.10;5.70;;;25.40;30.50;;;;;;4977802;28;20263;-79
2022/04/18 12:43:16;;;;;;;5.03;4.72;;;26.30;30.00;;;;;;4974992;28;20177;-79
2022/04/18 12:45:52;;;;;;;5.65;5.30;;;26.40;29.50;;;;;;4991063;28;20243;-78
2022/04/18 12:48:26;;;;;;;5.78;5.38;;;26.10;30.10;;;;;;4997128;28;20567;-78
2022/04/18 12:50:53;;;;;;;5.93;5.43;;;25.40;30.50;;;;;;4986123;28;20187;-78
2022/04/18 12:53:20;;;;;;;5.60;5.30;;;25.50;31.00;;;;;;4994387;28;20177;-78
2022/04/18 12:55:46;;;;;;;5.55;5.25;;;25.90;31.00;;;;;;4962136;29;20245;-79
2022/04/18 12:58:20;;;;;;;6.10;5.60;;;25.30;31.10;;;;;;4958434;28;20189;-80
2022/04/18 13:00:50;;;;;;;5.70;5.30;;;25.80;30.10;;;;;;4957143;28;20185;-80
2022/04/18 13:03:17;;;;;;;6.15;5.65;;;25.50;31.00;;;;;;4963770;28;20205;-79
2022/04/18 13:05:49;;;;;;;7.47;5.65;;;27.10;29.00;;;;;;4997415;28;20201;-78
2022/04/18 13:08:17;;;;;;;5.80;5.38;;;27.00;29.10;;;;;;4983690;28;20191;-80
2022/04/18 13:10:44;;;;;;;4.53;4.32;;;27.30;29.70;;;;;;4995161;28;20259;-80
2022/04/18 13:13:18;;;;;;;4.80;4.43;;;28.00;28.50;;;;;;4976313;28;20182;-77
2022/04/18 13:15:48;;;;;;;4.82;4.53;;;28.10;28.40;;;;;;4977439;28;20272;-78
2022/04/18 13:18:21;;;;;;;5.07;4.68;;;27.90;28.70;;;;;;4962204;28;20640;-78
2022/04/18 13:20:48;;;;;;;4.57;4.18;;;28.20;28.60;;;;;;4960155;29;20221;-79
2022/04/18 13:23:14;;;;;;;4.65;4.35;;;27.90;28.60;;;;;;4966347;28;20177;-80
2022/04/18 13:25:40;;;;;;;4.97;4.57;;;26.70;29.90;;;;;;4999001;28;20205;-78
2022/04/18 13:28:07;;;;;;;6.47;5.97;;;26.50;29.60;;;;;;4983772;28;20248;-78
2022/04/18 13:30:37;;;;;;;5.40;5.00;;;26.30;31.30;;;;;;4985394;28;20188;-79
2022/04/18 13:33:08;;;;;;;4.40;4.03;;;26.50;30.10;;;;;;4996784;28;20185;-79
2022/04/18 13:36:30;;;;;;;4.60;4.30;;;27.10;29.20;;;;;;4980480;28;20221;-78
2022/04/18 13:38:27;;;;;;;4.22;3.92;;;26.90;28.90;;;;;;4981250;28;20185;-78
2022/04/18 13:40:53;;;;;;;4.95;4.55;;;26.90;29.00;;;;;;4980711;28;20189;-78
2022/04/18 13:43:19;;;;;;;4.63;4.32;;;27.70;29.10;;;;;;4974129;28;20182;-78
2022/04/18 13:45:46;;;;;;;4.25;4.05;;;28.60;28.00;;;;;;4979774;28;20630;-79
2022/04/18 13:48:13;;;;;;;4.20;4.00;;;27.60;28.10;;;;;;4995553;28;20622;-79
2022/04/18 13:50:38;;;;;;;4.28;3.97;;;27.30;28.40;;;;;;4980612;28;20216;-79
2022/04/18 13:53:04;;;;;;;4.50;4.10;;;28.30;28.00;;;;;;4992532;28;20185;-79
2022/04/18 13:55:33;;;;;;;4.68;4.28;;;27.80;28.80;;;;;;4961342;28;20221;-79
2022/04/18 13:57:59;;;;;;;4.30;4.00;;;27.50;28.70;;;;;;4961375;28;20182;-79
2022/04/18 14:00:25;;;;;;;4.53;4.22;;;27.80;28.30;;;;;;4959516;28;20298;-78
2022/04/18 14:02:50;;;;;;;4.40;4.10;;;28.60;28.00;;;;;;4959921;28;20233;-78
2022/04/18 14:05:16;;;;;;;4.68;3.58;;;29.00;27.50;;;;;;4994230;28;20209;-78
2022/04/18 14:07:42;;;;;;;4.13;3.85;;;28.30;28.10;;;;;;4979435;28;20185;-78
2022/04/18 14:10:09;;;;;;;4.50;4.20;;;28.50;28.10;;;;;;4979771;28;20184;-79
2022/04/18 14:12:35;;;;;;;4.07;3.83;;;28.80;28.20;;;;;;4979185;28;20189;-78
2022/04/18 14:20:32;;;;;;;4.63;4.32;;;27.70;27.80;;;;;;4959818;28;20178;-78
2022/04/18 14:22:58;;;;;;;4.63;4.32;;;27.30;27.90;;;;;;4960308;28;20178;-78
2022/04/18 14:25:28;;;;;;;4.57;3.97;;;27.10;28.30;;;;;;4979480;28;20213;-78
2022/04/18 14:27:54;;;;;;;4.57;4.22;;;27.50;28.00;;;;;;4993611;28;20193;-78
2022/04/18 14:30:20;;;;;;;4.22;4.03;;;27.90;27.60;;;;;;5000104;28;20201;-78
2022/04/18 14:32:46;;;;;;;4.50;4.28;;;27.60;28.40;;;;;;4986986;28;20185;-78
2022/04/18 14:35:13;;;;;;;3.88;3.67;;;28.30;28.40;;;;;;4992218;28;20224;-78
2022/04/18 14:37:41;;;;;;;4.38;4.13;;;28.50;28.10;;;;;;4981548;28;20180;-78
2022/04/18 14:40:09;;;;;;;3.70;3.50;;;28.90;27.20;;;;;;4983472;28;20184;-78
2022/04/18 14:42:36;;;;;;;3.90;3.70;;;28.80;26.40;;;;;;4996105;28;20204;-78
2022/04/18 14:45:04;;;;;;;4.40;4.20;;;26.70;28.40;;;;;;4998766;28;20200;-77
2022/04/18 14:47:30;;;;;;;4.13;3.83;;;26.20;29.00;;;;;;4991818;28;20165;-77
2022/04/18 14:49:56;;;;;;;4.93;4.63;;;27.30;28.30;;;;;;5000008;28;20188;-78
2022/04/18 14:52:22;;;;;;;5.00;4.70;;;27.20;27.80;;;;;;4987127;28;20185;-78
2022/04/18 14:54:50;;;;;;;4.10;3.90;;;27.30;28.00;;;;;;4968737;28;20717;-79
2022/04/18 14:57:16;;;;;;;4.07;3.90;;;27.10;28.20;;;;;;4962181;28;20565;-77
2022/04/18 14:59:42;;;;;;;4.15;3.92;;;28.30;27.40;;;;;;4963571;28;20192;-79
2022/04/18 15:02:08;;;;;;;3.80;3.40;;;29.30;27.00;;;;;;4965662;28;20182;-77
2022/04/18 15:04:34;;;;;;;4.68;4.43;;;29.10;26.80;;;;;;4976413;28;20298;-77
2022/04/18 15:07:01;;;;;;;4.07;3.78;;;28.70;27.00;;;;;;4993741;28;20215;-79
2022/04/18 15:09:26;;;;;;;4.13;3.83;;;28.20;27.20;;;;;;4979707;28;20224;-78
2022/04/18 15:11:52;;;;;;;3.70;3.40;;;28.50;26.90;;;;;;4995137;28;20182;-79
2022/04/18 15:14:18;;;;;;;3.53;3.33;;;29.40;26.10;;;;;;4997915;28;20177;-78
2022/04/18 15:16:44;;;;;;;3.42;3.22;;;29.10;26.70;;;;;;4962638;23;20230;-79
2022/04/18 15:19:10;;;;;;;3.90;3.65;;;29.20;26.80;;;;;;4939584;29;20182;-78
2022/04/18 15:21:36;;;;;;;4.60;4.32;;;28.90;26.70;;;;;;4940894;29;20186;-78
2022/04/18 15:24:04;;;;;;;3.85;3.65;;;28.00;28.10;;;;;;4938721;29;20190;-79
2022/04/18 15:26:30;;;;;;;5.05;4.65;;;27.90;27.40;;;;;;4924094;29;20214;-78
2022/04/18 15:28:56;;;;;;;5.07;4.68;;;27.40;28.60;;;;;;4920620;29;20245;-78
2022/04/18 15:34:06;;;;;;;3.75;3.53;;;27.10;28.30;;;;;;4919438;29;20202;-80
2022/04/18 15:36:32;;;;;;;4.03;3.83;;;26.90;28.70;;;;;;4922495;29;20452;-78
2022/04/18 15:39:00;;;;;;;3.40;3.30;;;26.90;28.90;;;;;;4922483;29;20194;-78
2022/04/18 15:41:26;;;;;;;3.85;3.65;;;26.90;28.30;;;;;;4923681;29;20648;-78
2022/04/18 15:43:52;;;;;;;4.35;3.97;;;26.20;29.00;;;;;;4932753;29;20218;-78
2022/04/18 15:46:19;;;;;;;3.67;3.47;;;25.90;29.70;;;;;;4929956;29;20207;-78
2022/04/18 15:48:46;;;;;;;4.30;4.10;;;26.80;28.90;;;;;;4921421;29;20198;-79
2022/04/18 15:51:11;;;;;;;4.30;4.00;;;25.90;29.30;;;;;;4920526;29;20275;-79
2022/04/18 15:53:40;;;;;;;3.90;3.70;;;25.40;29.60;;;;;;4919259;29;20250;-79
2022/04/18 15:56:06;;;;;;;4.28;3.72;;;26.00;29.50;;;;;;4913914;29;20290;-79
2022/04/18 15:58:35;;;;;;;3.90;3.72;;;26.60;28.80;;;;;;4908107;29;20183;-78
2022/04/18 16:01:05;;;;;;;4.22;4.03;;;26.40;29.20;;;;;;4897941;29;20187;-78
2022/04/18 16:03:30;;;;;;;3.67;3.47;;;26.90;29.20;;;;;;4906764;29;20183;-77
2022/04/18 16:05:56;;;;;;;3.13;3.03;;;27.00;28.30;;;;;;4919748;29;20203;-80
2022/04/18 16:08:22;;;;;;;3.63;3.40;;;27.20;28.30;;;;;;4916405;29;20297;-79